Dades meteomassalio
Diari Summary for Abril 27, 2017 Units:  English    Metric   Both
« Previous Day
Next Day »
Diari Semanal Mensual Anual Personalitzat
  Maxima: Minima: Mijana:
Temperatura: TemperatureC °F 3.8 °F 8.3 °F
Rosada: DewpointC °F -3.2 °F 1.4 °F
Humitat: Humidity % 30 % 66 %
Velocitat del vent: WindSpeedKMH mph 0.0 mph 16.7 mph
Racha vent: WindSpeedGustKMH mph - -
Vent:- - WNW
Pressio: PressurehPa in 1013.8 in -
Pluja: 1.5 in    
Historical Graphs
 
 
Tabular Data for Abril 27, 2017
Time Temperature Dew Point Pressure Wind Wind Speed Wind Gust Humidity Rainfall Rate (Hourly) solar Conditions
TemperatureC °F DewpointC °F PressurehPa in Calm     Humidity % HourlyPrecipMM in SolarRadiationWatts/m^2 W/m2 Conditions
00:03 9.3 °F 0.2 °F 1014.1 in WNW 22.2 mph 22.2 mph 53 % 0.0 in 0.0 W/m2 RA
00:08 9.3 °F 0.2 °F 1014.1 in WNW 29.6 mph 29.6 mph 53 % 0.0 in 0.0 W/m2 CLR
00:13 9.0 °F 1.2 °F 1014.4 in WNW 31.5 mph 31.5 mph 58 % 0.0 in 0.0 W/m2 CLR
00:18 8.2 °F 1.4 °F 1014.1 in NW 32.2 mph 32.2 mph 62 % 0.0 in 0.0 W/m2 CLR
00:23 7.5 °F 1.6 °F 1014.4 in WNW 31.5 mph 31.5 mph 66 % 0.0 in 0.0 W/m2 RA
00:28 7.2 °F 1.8 °F 1014.4 in WNW 19.3 mph 19.3 mph 69 % 0.0 in 0.0 W/m2
00:33 7.0 °F 2.5 °F 1014.4 in NW 27.8 mph 27.8 mph 73 % 0.0 in 0.0 W/m2 CLR
00:38 6.9 °F 2.2 °F 1014.1 in WNW 24.1 mph 24.1 mph 72 % 0.0 in 0.0 W/m2 CLR
00:43 7.1 °F 2.3 °F 1014.1 in WSW 20.4 mph 20.4 mph 72 % 0.0 in 0.0 W/m2 CLR
00:48 7.2 °F 2.3 °F 1014.4 in WNW 18.5 mph 18.5 mph 71 % 0.0 in 0.0 W/m2 CLR
00:53 7.2 °F 2.5 °F 1014.4 in WNW 18.5 mph 18.5 mph 72 % 0.0 in 0.0 W/m2 CLR
00:58 7.2 °F 2.3 °F 1014.4 in WNW 20.4 mph 20.4 mph 71 % 0.0 in 0.0 W/m2 CLR
01:03 7.2 °F 2.3 °F 1014.4 in West 24.1 mph 24.1 mph 71 % 0.3 in 0.0 W/m2 CLR
01:08 7.2 °F 2.3 °F 1014.4 in WNW 24.1 mph 24.1 mph 71 % 0.3 in 0.0 W/m2 CLR
01:13 7.1 °F 2.4 °F 1014.8 in West 13.0 mph 13.0 mph 72 % 0.3 in 0.0 W/m2 CLR
01:18 6.9 °F 2.4 °F 1014.8 in WNW 18.5 mph 18.5 mph 73 % 0.3 in 0.0 W/m2 CLR
01:23 6.8 °F 2.4 °F 1014.8 in WSW 12.9 mph 12.9 mph 74 % 0.3 in 0.0 W/m2 RA
01:28 6.7 °F 2.6 °F 1014.8 in WNW 24.1 mph 24.1 mph 75 % 0.3 in 0.0 W/m2
01:33 6.6 °F 2.5 °F 1014.8 in WNW 12.9 mph 12.9 mph 75 % 0.3 in 0.0 W/m2 CLR
01:38 6.6 °F 2.5 °F 1014.8 in West 11.3 mph 11.3 mph 75 % 0.3 in 0.0 W/m2 CLR
01:43 6.6 °F 2.6 °F 1014.8 in Calm     76 % 0.3 in 0.0 W/m2 CLR
01:48 6.6 °F 2.8 °F 1014.8 in WSW 5.6 mph 5.6 mph 77 % 0.3 in 0.0 W/m2 CLR
01:53 6.6 °F 2.6 °F 1014.8 in Calm   0.5 mph 76 % 0.3 in 0.0 W/m2 CLR
01:58 6.6 °F 2.6 °F 1014.8 in Calm     76 % 0.3 in 0.0 W/m2 CLR
02:03 6.6 °F 2.7 °F 1014.8 in Calm     76 % 0.3 in 0.0 W/m2 CLR
02:08 6.7 °F 2.6 °F 1015.1 in West 13.0 mph 13.0 mph 75 % 0.3 in 0.0 W/m2 CLR
02:13 6.8 °F 2.5 °F 1015.1 in NW 18.5 mph 18.5 mph 74 % 0.3 in 0.0 W/m2 CLR
02:18 6.8 °F 2.3 °F 1014.8 in NW 16.7 mph 16.7 mph 73 % 0.3 in 0.0 W/m2 CLR
02:23 6.7 °F 2.6 °F 1014.8 in NW 13.0 mph 13.0 mph 75 % 0.0 in 0.0 W/m2 CLR
02:28 6.6 °F 2.3 °F 1014.8 in Calm     74 % 0.0 in 0.0 W/m2 CLR
02:33 6.6 °F 2.5 °F 1014.8 in NW 13.0 mph 13.0 mph 75 % 0.0 in 0.0 W/m2 CLR
02:38 6.7 °F 2.3 °F 1014.8 in Calm   1.3 mph 74 % 0.0 in 0.0 W/m2 CLR
02:43 6.7 °F 2.3 °F 1014.8 in NW 9.3 mph 9.3 mph 74 % 0.0 in 0.0 W/m2 CLR
02:48 6.7 °F 2.3 °F 1014.8 in WNW 16.7 mph 16.7 mph 74 % 0.0 in 0.0 W/m2 CLR
02:54 6.7 °F 2.6 °F 1014.8 in NNW 20.4 mph 20.4 mph 75 % 0.0 in 0.0 W/m2 CLR
02:59 6.6 °F 2.6 °F 1014.8 in WNW 18.5 mph 18.5 mph 76 % 0.0 in 0.0 W/m2 CLR
03:04 6.4 °F 2.7 °F 1015.1 in NW 18.5 mph 18.5 mph 77 % 0.0 in 0.0 W/m2 CLR
03:09 6.2 °F 2.7 °F 1014.8 in NW 22.2 mph 22.2 mph 78 % 0.0 in 0.0 W/m2 CLR
03:14 6.2 °F 2.8 °F 1015.1 in WNW 11.1 mph 11.1 mph 79 % 0.0 in 0.0 W/m2 CLR
03:19 6.1 °F 2.7 °F 1014.8 in NW 11.3 mph 11.3 mph 79 % 0.0 in 0.0 W/m2 CLR
03:24 6.1 °F 2.9 °F 1014.8 in NNW 14.8 mph 14.8 mph 80 % 0.0 in 0.0 W/m2 CLR
03:29 6.0 °F 2.8 °F 1014.8 in NNW 22.5 mph 22.5 mph 80 % 0.0 in 0.0 W/m2 CLR
03:34 5.8 °F 2.8 °F 1014.8 in NNW 16.7 mph 16.7 mph 81 % 0.0 in 0.0 W/m2 CLR
03:39 5.7 °F 2.9 °F 1014.8 in NW 19.3 mph 19.3 mph 82 % 0.0 in 0.0 W/m2 CLR
03:44 5.6 °F 2.9 °F 1014.8 in NW 20.4 mph 20.4 mph 83 % 0.0 in 0.0 W/m2 CLR
03:49 5.5 °F 3.0 °F 1014.8 in NW 16.7 mph 16.7 mph 84 % 0.0 in 0.0 W/m2 CLR
03:54 5.5 °F 3.0 °F 1014.8 in WNW 13.0 mph 13.0 mph 84 % 0.0 in 0.0 W/m2 CLR
03:59 5.4 °F 3.1 °F 1014.8 in West 16.7 mph 16.7 mph 85 % 0.0 in 0.0 W/m2 CLR
04:04 5.4 °F 2.9 °F 1014.8 in WNW 16.7 mph 16.7 mph 84 % 0.0 in 0.0 W/m2 CLR
04:09 5.3 °F 2.8 °F 1014.8 in NW 25.9 mph 25.9 mph 84 % 0.0 in 0.0 W/m2 CLR
04:14 5.2 °F 2.9 °F 1014.8 in NW 18.5 mph 18.5 mph 85 % 0.0 in 0.0 W/m2 CLR
04:19 5.1 °F 2.7 °F 1014.8 in NNW 20.4 mph 20.4 mph 85 % 0.0 in 0.0 W/m2 CLR
04:24 5.0 °F 2.7 °F 1014.8 in NW 16.7 mph 16.7 mph 85 % 0.0 in 0.0 W/m2 CLR
04:29 4.9 °F 2.7 °F 1014.8 in NW 16.7 mph 16.7 mph 86 % 0.0 in 0.0 W/m2 CLR
04:34 4.8 °F 2.7 °F 1014.8 in WNW 9.7 mph 9.7 mph 86 % 0.0 in 0.0 W/m2 CLR
04:39 4.8 °F 2.8 °F 1014.8 in WNW 14.8 mph 14.8 mph 87 % 0.0 in 0.0 W/m2 CLR
04:44 4.8 °F 2.8 °F 1014.8 in NNW 18.5 mph 18.5 mph 87 % 0.0 in 0.0 W/m2 CLR
04:49 4.7 °F 2.7 °F 1014.8 in WNW 13.0 mph 13.0 mph 87 % 0.0 in 0.0 W/m2 CLR
04:54 4.6 °F 2.6 °F 1014.8 in WNW 18.5 mph 18.5 mph 87 % 0.0 in 0.0 W/m2 CLR
04:59 4.5 °F 2.5 °F 1014.8 in WNW 18.5 mph 18.5 mph 87 % 0.0 in 0.0 W/m2 CLR
05:04 4.4 °F 2.6 °F 1014.4 in WNW 14.8 mph 14.8 mph 88 % 0.0 in 0.0 W/m2 CLR
05:09 4.4 °F 2.6 °F 1014.4 in West 14.8 mph 14.8 mph 88 % 0.0 in 0.0 W/m2 CLR
05:14 4.4 °F 2.6 °F 1014.8 in West 16.7 mph 16.7 mph 88 % 0.0 in 0.0 W/m2 CLR
05:19 4.3 °F 2.5 °F 1014.4 in West 16.1 mph 16.1 mph 88 % 0.0 in 0.0 W/m2 CLR
05:24 4.3 °F 2.4 °F 1014.4 in West 18.5 mph 18.5 mph 88 % 0.0 in 0.0 W/m2 CLR
05:29 4.2 °F 2.2 °F 1014.8 in West 24.1 mph 24.1 mph 87 % 0.0 in 0.0 W/m2 CLR
05:34 4.1 °F 2.2 °F 1014.8 in West 20.9 mph 20.9 mph 88 % 0.0 in 0.0 W/m2 CLR
05:39 4.0 °F 2.1 °F 1014.4 in West 24.1 mph 24.1 mph 87 % 0.0 in 0.0 W/m2 CLR
05:44 3.9 °F 2.0 °F 1014.4 in WSW 24.1 mph 24.1 mph 87 % 0.0 in 0.0 W/m2 CLR
05:49 3.9 °F 1.9 °F 1014.4 in West 20.4 mph 20.4 mph 87 % 0.0 in 0.0 W/m2 CLR
05:54 3.9 °F 1.9 °F 1014.1 in WSW 19.3 mph 19.3 mph 87 % 0.0 in 0.0 W/m2 CLR
05:59 3.8 °F 1.9 °F 1014.1 in West 18.5 mph 18.5 mph 87 % 0.0 in 0.0 W/m2 CLR
06:04 3.8 °F 2.0 °F 1014.1 in West 9.7 mph 9.7 mph 88 % 0.0 in 0.0 W/m2 CLR
06:09 3.9 °F 2.1 °F 1014.1 in WSW 11.3 mph 11.3 mph 88 % 0.0 in 0.0 W/m2 CLR
06:14 3.9 °F 2.1 °F 1014.1 in SSW 11.1 mph 11.1 mph 88 % 0.0 in 0.0 W/m2 CLR
06:19 3.9 °F 2.1 °F 1014.1 in WSW 13.0 mph 13.0 mph 88 % 0.0 in 0.0 W/m2 CLR
06:24 3.9 °F 2.1 °F 1014.1 in WSW 14.8 mph 14.8 mph 88 % 0.0 in 0.0 W/m2 CLR
06:29 3.9 °F 2.1 °F 1014.1 in WSW 14.8 mph 14.8 mph 88 % 0.0 in 0.0 W/m2 CLR
06:34 4.0 °F 2.1 °F 1014.1 in WSW 14.8 mph 14.8 mph 87 % 0.0 in 0.0 W/m2 CLR
06:39 4.0 °F 2.2 °F 1014.1 in WSW 14.8 mph 14.8 mph 88 % 0.0 in 0.0 W/m2 CLR
06:44 4.0 °F 2.1 °F 1014.1 in West 14.8 mph 14.8 mph 87 % 0.0 in 0.0 W/m2 CLR
06:49 3.9 °F 2.1 °F 1014.4 in WSW 16.7 mph 16.7 mph 88 % 0.3 in 0.0 W/m2 RA
06:54 3.9 °F 2.1 °F 1014.1 in West 18.5 mph 18.5 mph 88 % 0.3 in 0.0 W/m2 CLR
06:59 3.9 °F 2.1 °F 1014.1 in West 16.7 mph 16.7 mph 88 % 0.3 in 0.0 W/m2 CLR
07:04 3.9 °F 2.1 °F 1014.1 in West 18.5 mph 18.5 mph 88 % 0.5 in 0.0 W/m2 RA
07:09 3.9 °F 2.1 °F 1014.4 in West 19.3 mph 19.3 mph 88 % 0.5 in 0.0 W/m2
07:14 3.9 °F 2.1 °F 1014.4 in WSW 20.4 mph 20.4 mph 88 % 0.5 in 0.0 W/m2 CLR
07:19 3.8 °F 2.0 °F 1014.8 in WSW 18.5 mph 18.5 mph 88 % 0.5 in 0.0 W/m2 OVC
07:24 3.8 °F 2.0 °F 1014.8 in WNW 20.4 mph 20.4 mph 88 % 0.5 in 0.0 W/m2 OVC
07:29 3.8 °F 2.0 °F 1014.8 in West 18.5 mph 18.5 mph 88 % 0.5 in 9.0 W/m2 RA
07:34 3.8 °F 2.0 °F 1014.8 in WNW 18.5 mph 18.5 mph 88 % 0.5 in 9.0 W/m2 BKN
07:39 3.8 °F 2.2 °F 1014.8 in West 18.5 mph 18.5 mph 89 % 0.5 in 7.0 W/m2 BKN
07:44 3.9 °F 2.2 °F 1015.1 in West 11.1 mph 11.1 mph 89 % 0.5 in 5.0 W/m2 OVC
07:49 3.9 °F 2.2 °F 1015.1 in WSW 9.3 mph 9.3 mph 89 % 0.5 in 5.0 W/m2 OVC
07:54 3.9 °F 2.3 °F 1015.1 in West 11.1 mph 11.1 mph 89 % 0.5 in 9.0 W/m2 BKN
08:00 4.0 °F 2.3 °F 1015.1 in WSW 16.1 mph 16.1 mph 89 % 0.5 in 7.0 W/m2 BKN
08:05 4.1 °F 2.4 °F 1015.1 in West 7.4 mph 7.4 mph 89 % 0.3 in 5.0 W/m2 BKN
08:10 4.1 °F 2.4 °F 1015.1 in West 9.3 mph 9.3 mph 89 % 0.3 in 11.0 W/m2 BKN
08:15 4.1 °F 2.4 °F 1015.1 in West 8.0 mph 8.0 mph 89 % 0.3 in 11.0 W/m2 BKN
08:20 4.1 °F 2.4 °F 1015.1 in West 11.1 mph 11.1 mph 89 % 0.3 in 14.0 W/m2 BKN
08:25 4.1 °F 2.4 °F 1015.5 in West 6.4 mph 6.4 mph 89 % 0.3 in 18.0 W/m2 BKN
08:30 4.1 °F 2.4 °F 1015.5 in West 5.6 mph 5.6 mph 89 % 0.0 in 23.0 W/m2 BKN
08:35 4.2 °F 2.5 °F 1015.5 in West 7.4 mph 7.4 mph 89 % 0.3 in 25.0 W/m2 RA
08:40 4.1 °F 2.4 °F 1015.5 in WSW 13.0 mph 13.0 mph 89 % 0.3 in 18.0 W/m2 BKN
08:45 4.1 °F 2.4 °F 1015.5 in SW 9.3 mph 9.3 mph 89 % 0.3 in 25.0 W/m2 BKN
08:50 4.1 °F 2.4 °F 1015.5 in SW 7.4 mph 7.4 mph 89 % 0.3 in 26.0 W/m2 BKN
08:55 4.1 °F 2.4 °F 1015.5 in WSW 7.4 mph 8.7 mph 89 % 0.3 in 33.0 W/m2 BKN
09:00 4.1 °F 2.6 °F 1015.5 in SW 7.4 mph 7.4 mph 90 % 0.3 in 42.0 W/m2 BKN
09:05 4.1 °F 2.6 °F 1015.5 in SSW 9.3 mph 9.3 mph 90 % 0.3 in 42.0 W/m2 BKN
09:10 4.1 °F 2.6 °F 1015.5 in SSW 9.7 mph 9.7 mph 90 % 0.3 in 46.0 W/m2 BKN
09:15 4.1 °F 2.6 °F 1015.5 in SW 11.1 mph 11.1 mph 90 % 0.3 in 84.0 W/m2 SCT
09:20 4.1 °F 2.6 °F 1015.5 in SW 9.7 mph 9.7 mph 90 % 0.3 in 88.0 W/m2 FEW
09:25 4.1 °F 2.6 °F 1015.5 in SW 11.1 mph 11.1 mph 90 % 0.3 in 81.0 W/m2 FEW
09:30 4.2 °F 2.7 °F 1015.5 in WSW 14.8 mph 14.8 mph 90 % 0.3 in 46.0 W/m2 FEW
09:35 4.2 °F 2.7 °F 1015.5 in West 14.8 mph 14.8 mph 90 % 0.0 in 44.0 W/m2 SCT
09:40 4.2 °F 2.7 °F 1015.5 in WSW 14.8 mph 14.8 mph 90 % 0.0 in 35.0 W/m2 BKN
09:45 4.3 °F 2.8 °F 1015.5 in WSW 9.3 mph 9.3 mph 90 % 0.0 in 37.0 W/m2 BKN
09:50 4.3 °F 2.8 °F 1015.8 in West 11.1 mph 11.1 mph 90 % 0.0 in 35.0 W/m2 BKN
09:55 4.4 °F 2.8 °F 1015.8 in West 14.8 mph 14.8 mph 89 % 0.0 in 63.0 W/m2 BKN
10:00 4.6 °F 2.9 °F 1015.8 in WSW 18.5 mph 18.5 mph 89 % 0.0 in 65.0 W/m2 SCT
10:05 4.6 °F 2.9 °F 1015.8 in WNW 17.7 mph 17.7 mph 89 % 0.5 in 77.0 W/m2 RA
10:10 4.5 °F 2.8 °F 1016.1 in NW 16.7 mph 16.7 mph 89 % 0.5 in 77.0 W/m2 FEW
10:11 4.5 °F 2.8 °F 1016.1 in WNW 17.7 mph 17.7 mph 89 % 0.5 in 77.0 W/m2 FEW
10:16 4.5 °F 2.8 °F 1016.1 in WNW 16.7 mph 16.7 mph 89 % 0.5 in 69.0 W/m2 FEW
10:21 4.4 °F 2.8 °F 1016.1 in West 18.5 mph 18.5 mph 89 % 0.5 in 63.0 W/m2 FEW
10:26 4.5 °F 2.8 °F 1016.1 in West 16.7 mph 16.7 mph 89 % 0.5 in 62.0 W/m2 SCT
10:31 4.4 °F 2.8 °F 1016.1 in WNW 16.7 mph 16.7 mph 89 % 0.5 in 42.0 W/m2 SCT
10:36 4.4 °F 2.6 °F 1016.1 in WNW 20.4 mph 20.4 mph 88 % 0.5 in 40.0 W/m2 SCT
10:41 4.5 °F 2.8 °F 1016.1 in WNW 14.8 mph 14.8 mph 89 % 0.5 in 49.0 W/m2 BKN
10:46 4.6 °F 2.9 °F 1016.1 in WSW 14.8 mph 14.8 mph 89 % 0.5 in 56.0 W/m2 SCT
10:51 4.6 °F 2.9 °F 1016.1 in West 17.7 mph 17.7 mph 89 % 0.5 in 62.0 W/m2 SCT
10:56 4.7 °F 3.0 °F 1016.5 in West 18.5 mph 18.5 mph 89 % 0.5 in 56.0 W/m2 SCT
11:01 4.7 °F 2.8 °F 1016.1 in WNW 14.8 mph 14.8 mph 88 % 0.5 in 65.0 W/m2 SCT
11:06 4.8 °F 2.9 °F 1016.1 in West 16.7 mph 16.7 mph 88 % 0.0 in 72.0 W/m2 SCT
11:11 4.8 °F 3.0 °F 1016.1 in West 20.4 mph 20.4 mph 88 % 0.0 in 105.0 W/m2 FEW
11:16 5.0 °F 3.2 °F 1016.1 in West 14.8 mph 14.8 mph 88 % 0.0 in 104.0 W/m2 CLR
11:21 5.0 °F 3.0 °F 1016.5 in West 11.1 mph 11.1 mph 87 % 0.0 in 100.0 W/m2 CLR
11:26 5.0 °F 3.0 °F 1016.5 in WNW 14.8 mph 14.8 mph 87 % 0.0 in 121.0 W/m2 CLR
11:31 5.1 °F 2.9 °F 1016.5 in West 18.5 mph 18.5 mph 86 % 0.0 in 153.0 W/m2 CLR
11:36 5.1 °F 2.9 °F 1016.5 in West 18.5 mph 18.5 mph 86 % 0.0 in 165.0 W/m2 CLR
11:41 5.1 °F 2.9 °F 1016.5 in WSW 14.8 mph 14.8 mph 86 % 0.0 in 144.0 W/m2 CLR
11:46 5.2 °F 3.0 °F 1016.5 in West 14.5 mph 14.5 mph 86 % 0.0 in 148.0 W/m2 CLR
11:51 5.3 °F 2.9 °F 1016.1 in SW 9.3 mph 9.3 mph 85 % 0.0 in 213.0 W/m2 CLR
11:56 5.3 °F 3.0 °F 1016.5 in WSW 7.4 mph 7.4 mph 85 % 0.0 in 169.0 W/m2 CLR
12:01 5.5 °F 3.2 °F 1016.5 in West 9.3 mph 9.3 mph 85 % 0.0 in 155.0 W/m2 CLR
12:06 5.6 °F 3.2 °F 1016.5 in SW 11.1 mph 11.1 mph 85 % 0.0 in 144.0 W/m2 CLR
12:11 5.6 °F 3.1 °F 1016.5 in WSW 13.0 mph 13.0 mph 84 % 0.0 in 181.0 W/m2 CLR
12:16 5.8 °F 3.3 °F 1016.5 in SW 11.1 mph 11.1 mph 84 % 0.0 in 178.0 W/m2 CLR
12:21 5.9 °F 3.2 °F 1016.5 in WSW 11.1 mph 11.1 mph 83 % 0.0 in 192.0 W/m2 CLR
12:26 6.1 °F 3.2 °F 1016.1 in WSW 4.8 mph 4.8 mph 82 % 0.0 in 306.0 W/m2 CLR
12:31 6.3 °F 3.5 °F 1016.5 in Calm     82 % 0.0 in 309.0 W/m2 CLR
12:36 6.5 °F 3.5 °F 1016.5 in SW 5.6 mph 5.6 mph 81 % 0.0 in 211.0 W/m2 CLR
12:41 6.6 °F 3.6 °F 1016.1 in SW 5.6 mph 5.6 mph 81 % 0.0 in 297.0 W/m2 CLR
12:46 6.7 °F 3.5 °F 1016.1 in West 3.7 mph 3.7 mph 80 % 0.0 in 283.0 W/m2 CLR
12:51 7.0 °F 3.9 °F 1016.1 in WSW 1.9 mph 2.7 mph 81 % 0.0 in 304.0 W/m2 CLR
12:56 7.3 °F 3.7 °F 1016.1 in NW 5.6 mph   78 % 0.0 in 448.0 W/m2 CLR
13:01 7.7 °F 4.5 °F 1016.1 in West 6.4 mph 6.4 mph 80 % 0.0 in 605.0 W/m2 CLR
13:06 7.9 °F 3.9 °F 1015.8 in WSW 5.6 mph 5.6 mph 76 % 0.0 in 696.0 W/m2 CLR
13:11 8.2 °F 4.4 °F 1015.8 in WSW 8.0 mph 8.0 mph 77 % 0.0 in 663.0 W/m2 CLR
13:16 8.7 °F 4.8 °F 1015.8 in Calm     77 % 0.0 in 1213.0 W/m2 CLR
13:21 9.2 °F 5.0 °F 1015.8 in SW 18.5 mph 18.5 mph 75 % 0.0 in 645.0 W/m2 CLR
13:26 9.2 °F 4.0 °F 1015.5 in WNW 25.9 mph 25.9 mph 70 % 0.0 in 591.0 W/m2 CLR
13:31 9.3 °F 4.7 °F 1015.5 in Calm     73 % 0.0 in 461.0 W/m2 CLR
13:36 9.7 °F 4.5 °F 1015.5 in WNW 20.4 mph 20.4 mph 70 % 0.0 in 397.0 W/m2 CLR
13:41 10.0 °F 4.2 °F 1015.5 in NNW 18.5 mph 18.5 mph 67 % 0.0 in 788.0 W/m2 CLR
13:46 10.1 °F 4.4 °F 1015.5 in West 18.5 mph 18.5 mph 68 % 0.0 in 438.0 W/m2 CLR
13:51 10.0 °F 3.9 °F 1015.5 in NW 22.2 mph 22.2 mph 66 % 0.0 in 422.0 W/m2 CLR
13:56 9.9 °F 4.1 °F 1015.5 in WNW 16.7 mph 16.7 mph 67 % 0.0 in 369.0 W/m2 CLR
14:01 9.9 °F 3.4 °F 1015.5 in NW 11.3 mph 11.3 mph 64 % 0.0 in 274.0 W/m2 CLR
14:06 10.0 °F 3.9 °F 1015.1 in WNW 31.5 mph 31.5 mph 66 % 0.0 in 292.0 W/m2 CLR
14:12 10.0 °F 3.7 °F 1015.5 in WNW 18.5 mph 18.5 mph 65 % 0.0 in 434.0 W/m2 CLR
14:17 10.3 °F 3.6 °F 1015.5 in NW 24.1 mph 24.1 mph 63 % 0.0 in 759.0 W/m2 CLR
14:22 10.3 °F 3.1 °F 1015.1 in NW 11.1 mph 11.1 mph 61 % 0.0 in 274.0 W/m2 CLR
14:27 10.4 °F 3.4 °F 1015.5 in NW 19.3 mph 19.3 mph 62 % 0.0 in 385.0 W/m2 CLR
14:32 10.7 °F 3.7 °F 1015.1 in WNW 17.7 mph 17.7 mph 62 % 0.0 in 1009.0 W/m2 CLR
14:37 11.0 °F 3.1 °F 1015.1 in West 13.0 mph 13.0 mph 58 % 0.0 in 385.0 W/m2 CLR
14:42 10.9 °F 3.0 °F 1015.1 in West 22.2 mph 22.2 mph 58 % 0.0 in 383.0 W/m2 CLR
14:47 11.1 °F 3.9 °F 1015.1 in NNE 6.4 mph 6.8 mph 61 % 0.0 in 619.0 W/m2 CLR
14:52 11.1 °F 3.2 °F 1015.1 in WNW 13.0 mph 13.0 mph 58 % 0.0 in 287.0 W/m2 CLR
14:57 11.2 °F 3.4 °F 1015.1 in NW 18.5 mph 18.5 mph 59 % 0.0 in 279.0 W/m2 CLR
15:02 11.1 °F 3.4 °F 1015.1 in WNW 1.9 mph   59 % 0.0 in 294.0 W/m2 CLR
15:07 11.2 °F 3.5 °F 1015.1 in NNW 16.7 mph 16.7 mph 59 % 0.0 in 378.0 W/m2 CLR
15:12 11.7 °F 3.2 °F 1015.1 in WNW 20.4 mph 20.4 mph 56 % 0.0 in 840.0 W/m2 CLR
15:17 12.2 °F 3.4 °F 1014.8 in WNW 14.8 mph 14.8 mph 55 % 0.0 in 965.0 W/m2 CLR
15:22 12.5 °F 2.9 °F 1014.8 in WSW 14.8 mph 14.8 mph 52 % 0.0 in 947.0 W/m2 CLR
15:27 12.7 °F 3.9 °F 1014.8 in NNE 22.5 mph 22.5 mph 55 % 0.0 in 918.0 W/m2 CLR
15:32 13.0 °F 3.6 °F 1014.8 in WNW 16.7 mph 16.7 mph 53 % 0.0 in 884.0 W/m2 CLR
15:37 13.1 °F 3.2 °F 1014.8 in NW 20.4 mph 20.4 mph 51 % 0.0 in 900.0 W/m2 CLR
15:42 13.4 °F 2.6 °F 1014.8 in NW 24.1 mph 24.1 mph 48 % 0.0 in 888.0 W/m2 CLR
15:47 13.4 °F 2.6 °F 1014.8 in WNW 24.1 mph 24.1 mph 48 % 0.0 in 932.0 W/m2 CLR
15:52 13.2 °F 1.5 °F 1014.4 in NNE 16.7 mph 16.7 mph 45 % 0.0 in 640.0 W/m2 CLR
15:57 13.0 °F 2.5 °F 1014.4 in NW 16.7 mph 16.7 mph 49 % 0.0 in 962.0 W/m2 CLR
16:02 13.3 °F 2.5 °F 1014.4 in NW 1.9 mph   48 % 0.0 in 914.0 W/m2 CLR
16:07 13.3 °F 2.2 °F 1014.4 in NNW 20.4 mph 20.4 mph 47 % 0.0 in 206.0 W/m2 CLR
16:12 13.3 °F 2.6 °F 1014.4 in WNW 18.5 mph 18.5 mph 48 % 0.0 in 780.0 W/m2 CLR
16:17 13.5 °F 1.4 °F 1014.4 in NW 3.7 mph 3.7 mph 44 % 0.0 in 856.0 W/m2 CLR
16:22 13.9 °F 2.8 °F 1014.1 in NW 24.1 mph 24.1 mph 47 % 0.0 in 789.0 W/m2 CLR
16:27 13.9 °F 1.8 °F 1014.1 in NW 11.1 mph 11.1 mph 44 % 0.0 in 775.0 W/m2 CLR
16:32 13.9 °F 0.8 °F 1014.1 in WNW 7.4 mph 7.4 mph 41 % 0.0 in 770.0 W/m2 CLR
16:37 13.8 °F 1.1 °F 1014.1 in NNW 20.4 mph 20.4 mph 42 % 0.0 in 155.0 W/m2 CLR
16:42 13.6 °F 0.9 °F 1014.1 in WNW 24.1 mph 24.1 mph 42 % 0.0 in 297.0 W/m2 CLR
16:47 13.7 °F 1.3 °F 1014.1 in NW 1.9 mph 1.9 mph 43 % 0.0 in 763.0 W/m2 CLR
16:52 13.8 °F 1.4 °F 1014.1 in WNW 13.0 mph 13.0 mph 43 % 0.0 in 199.0 W/m2 CLR
16:57 14.2 °F 1.8 °F 1014.1 in NW 13.0 mph 13.0 mph 43 % 0.0 in 830.0 W/m2 CLR
17:02 14.1 °F 0.7 °F 1013.8 in Calm     40 % 0.0 in 211.0 W/m2 CLR
17:07 14.2 °F 1.2 °F 1013.8 in WNW 18.5 mph 18.5 mph 41 % 0.0 in 817.0 W/m2 CLR
17:12 14.3 °F 0.6 °F 1013.8 in NW 19.3 mph 19.3 mph 39 % 0.0 in 204.0 W/m2 CLR
17:17 14.2 °F -0.7 °F 1013.8 in North 9.3 mph   36 % 0.0 in 202.0 W/m2 CLR
17:22 14.2 °F 0.1 °F 1013.8 in NNW 16.7 mph 16.7 mph 38 % 0.0 in 155.0 W/m2 CLR
17:27 14.3 °F -0.9 °F 1013.8 in NW 24.1 mph 24.1 mph 35 % 0.0 in 640.0 W/m2 CLR
17:32 14.4 °F -0.5 °F 1013.8 in WNW 18.5 mph 18.5 mph 36 % 0.0 in 613.0 W/m2 CLR
17:37 14.8 °F -0.6 °F 1013.8 in North 20.4 mph 20.4 mph 35 % 0.0 in 517.0 W/m2 CLR
17:42 14.7 °F -1.8 °F 1013.8 in NNE 12.9 mph 12.9 mph 32 % 0.0 in 564.0 W/m2 CLR
17:47 14.8 °F 0.2 °F 1013.8 in WNW 18.5 mph 18.5 mph 37 % 0.0 in 485.0 W/m2 CLR
17:52 14.6 °F -1.1 °F 1014.1 in North 20.4 mph 20.4 mph 34 % 0.0 in 114.0 W/m2 CLR
17:57 14.5 °F -0.8 °F 1013.8 in North 14.5 mph 14.5 mph 35 % 0.0 in 559.0 W/m2 CLR
18:02 14.8 °F -0.5 °F 1013.8 in NNW 1.6 mph 1.6 mph 35 % 0.0 in 520.0 W/m2 CLR
18:07 15.2 °F -0.6 °F 1013.8 in WNW 3.7 mph 3.7 mph 34 % 0.0 in 506.0 W/m2 CLR
18:12 15.3 °F -1.3 °F 1014.1 in WNW 17.7 mph 17.7 mph 32 % 0.0 in 492.0 W/m2 CLR
18:17 15.1 °F -1.6 °F 1013.8 in NW 25.9 mph 25.9 mph 32 % 0.0 in 457.0 W/m2 CLR
18:22 15.2 °F -0.6 °F 1014.1 in WNW 16.7 mph 16.7 mph 34 % 0.0 in 434.0 W/m2 CLR
18:27 15.2 °F -1.4 °F 1014.1 in NW 22.2 mph 22.2 mph 32 % 0.0 in 413.0 W/m2 CLR
18:32 15.2 °F -1.4 °F 1014.1 in West 14.5 mph 14.5 mph 32 % 0.0 in 399.0 W/m2 CLR
18:37 15.1 °F -1.9 °F 1014.1 in WNW 27.8 mph 27.8 mph 31 % 0.0 in 394.0 W/m2 CLR
18:42 15.0 °F -1.6 °F 1014.1 in NW 31.5 mph 31.5 mph 32 % 0.0 in 364.0 W/m2 CLR
18:47 15.0 °F -1.6 °F 1014.1 in North 16.7 mph 16.7 mph 32 % 0.0 in 341.0 W/m2 CLR
18:52 15.0 °F -2.0 °F 1014.1 in NW 25.9 mph 25.9 mph 31 % 0.0 in 325.0 W/m2 CLR
18:57 14.9 °F -2.1 °F 1014.4 in NW 31.5 mph 31.5 mph 31 % 0.0 in 309.0 W/m2 CLR
19:02 14.8 °F -2.2 °F 1014.4 in NNW 25.7 mph 25.7 mph 31 % 0.0 in 290.0 W/m2 CLR
19:07 14.6 °F -2.8 °F 1014.4 in NW 25.9 mph 25.9 mph 30 % 0.0 in 272.0 W/m2 CLR
19:12 14.7 °F -2.3 °F 1014.4 in WNW 22.2 mph 22.2 mph 31 % 0.0 in 255.0 W/m2 CLR
19:13 14.6 °F -2.3 °F 1014.4 in WNW 22.2 mph 22.2 mph 31 % 0.0 in 255.0 W/m2 CLR
19:18 14.6 °F -2.4 °F 1014.8 in WNW 31.5 mph 31.5 mph 31 % 0.0 in 236.0 W/m2 CLR
19:23 14.4 °F -2.5 °F 1014.8 in NW 18.5 mph 18.5 mph 31 % 0.0 in 216.0 W/m2 CLR
19:28 14.5 °F -2.4 °F 1014.8 in WNW 24.1 mph 24.1 mph 31 % 0.0 in 199.0 W/m2 CLR
19:33 14.3 °F -2.6 °F 1014.8 in NNW 24.1 mph 24.1 mph 31 % 0.0 in 179.0 W/m2 CLR
19:38 14.3 °F -2.7 °F 1014.8 in WNW 16.7 mph 16.7 mph 31 % 0.0 in 158.0 W/m2 CLR
19:43 14.1 °F -2.8 °F 1014.8 in NW 29.6 mph 29.6 mph 31 % 0.0 in 139.0 W/m2 CLR
19:48 13.9 °F -3.0 °F 1014.8 in NW 25.9 mph 25.9 mph 31 % 0.0 in 121.0 W/m2 CLR
19:53 13.7 °F -3.1 °F 1015.1 in NW 29.6 mph 29.6 mph 31 % 0.0 in 105.0 W/m2 CLR
19:58 13.6 °F -3.2 °F 1015.1 in NW 31.5 mph 31.5 mph 31 % 0.0 in 91.0 W/m2 CLR
20:03 13.4 °F -2.9 °F 1015.1 in NW 24.1 mph 24.1 mph 32 % 0.0 in 74.0 W/m2 FEW
20:08 13.3 °F -2.6 °F 1015.1 in NW 18.5 mph 18.5 mph 33 % 0.0 in 56.0 W/m2 SCT
20:13 13.3 °F -2.3 °F 1015.5 in NW 18.5 mph 18.5 mph 34 % 0.0 in 47.0 W/m2 SCT
20:18 13.1 °F -2.4 °F 1015.5 in NW 22.2 mph 22.2 mph 34 % 0.0 in 39.0 W/m2 BKN
20:23 12.9 °F -2.2 °F 1015.5 in NNW 25.9 mph 25.9 mph 35 % 0.0 in 26.0 W/m2 BKN
20:28 12.8 °F -1.9 °F 1015.5 in NW 18.5 mph 18.5 mph 36 % 0.0 in 21.0 W/m2 BKN
20:33 12.6 °F -1.8 °F 1015.8 in NNW 18.5 mph 18.5 mph 37 % 0.0 in 16.0 W/m2 BKN
20:38 12.3 °F -2.3 °F 1015.8 in NW 20.4 mph 20.4 mph 36 % 0.0 in 14.0 W/m2 BKN
20:43 12.1 °F -2.6 °F 1015.8 in WNW 24.1 mph 24.1 mph 36 % 0.0 in 11.0 W/m2 BKN
20:48 11.9 °F -1.9 °F 1015.8 in NW 18.5 mph 18.5 mph 38 % 0.0 in 7.0 W/m2 BKN
20:53 11.7 °F -1.8 °F 1016.1 in WNW 17.7 mph 17.7 mph 39 % 0.0 in 5.0 W/m2 OVC
20:58 11.7 °F -2.2 °F 1016.1 in NW 27.4 mph 27.4 mph 38 % 0.0 in 0.0 W/m2 OVC
21:03 11.5 °F -2.0 °F 1016.1 in WNW 16.7 mph 16.7 mph 39 % 0.0 in 0.0 W/m2 CLR
21:08 11.3 °F -1.8 °F 1016.5 in West 24.1 mph 24.1 mph 40 % 0.0 in 0.0 W/m2 CLR
21:13 11.3 °F -2.2 °F 1016.5 in WNW 25.9 mph 25.9 mph 39 % 0.0 in 0.0 W/m2 CLR
21:18 11.1 °F -2.0 °F 1016.5 in WNW 22.2 mph 22.2 mph 40 % 0.0 in 0.0 W/m2 CLR
21:23 11.1 °F -2.4 °F 1016.5 in WNW 31.5 mph 31.5 mph 39 % 0.0 in 0.0 W/m2 CLR
21:28 11.0 °F -2.4 °F 1016.8 in NW 20.4 mph 20.4 mph 39 % 0.0 in 0.0 W/m2 CLR
21:33 10.9 °F -2.5 °F 1016.8 in WNW 27.8 mph 27.8 mph 39 % 0.0 in 0.0 W/m2 CLR
21:38 10.9 °F -2.6 °F 1016.8 in NW 35.2 mph 35.2 mph 39 % 0.0 in 0.0 W/m2 CLR
21:43 10.7 °F -2.7 °F 1016.8 in NNW 22.2 mph 22.2 mph 39 % 0.0 in 0.0 W/m2 CLR
21:48 10.7 °F -2.4 °F 1017.2 in NW 25.9 mph 25.9 mph 40 % 0.0 in 0.0 W/m2 CLR
21:53 10.5 °F -2.2 °F 1017.5 in NW 17.7 mph 17.7 mph 41 % 0.0 in 0.0 W/m2 CLR
21:58 10.4 °F -2.7 °F 1017.5 in NNW 24.1 mph 24.1 mph 40 % 0.0 in 0.0 W/m2 CLR
22:03 10.3 °F -2.4 °F 1017.5 in NNW 18.5 mph 18.5 mph 41 % 0.0 in 0.0 W/m2 CLR
22:08 10.2 °F -2.5 °F 1017.5 in NNW 18.5 mph 18.5 mph 41 % 0.0 in 0.0 W/m2 CLR
22:13 10.1 °F -2.6 °F 1017.8 in NW 25.9 mph 25.9 mph 41 % 0.0 in 0.0 W/m2 CLR
22:18 10.1 °F -2.3 °F 1017.8 in NNW 24.1 mph 24.1 mph 42 % 0.0 in 0.0 W/m2 CLR
22:23 9.9 °F -2.4 °F 1018.2 in NW 20.4 mph 20.4 mph 42 % 0.0 in 0.0 W/m2 CLR
22:28 9.8 °F -2.2 °F 1018.2 in NW 14.8 mph 14.8 mph 43 % 0.0 in 0.0 W/m2 CLR
22:29 9.8 °F -2.2 °F 1018.2 in WNW 16.7 mph 16.7 mph 43 % 0.0 in 0.0 W/m2 CLR
22:34 9.6 °F -2.1 °F 1018.5 in NW 18.5 mph 18.5 mph 44 % 0.0 in 0.0 W/m2 CLR
22:39 9.4 °F -1.9 °F 1018.5 in NNW 22.2 mph 22.2 mph 45 % 0.0 in 0.0 W/m2 CLR
22:45 9.3 °F -1.7 °F 1018.5 in NNW 20.4 mph 20.4 mph 46 % 0.0 in 0.0 W/m2 CLR
22:50 9.2 °F -1.5 °F 1018.5 in West 14.8 mph 14.8 mph 47 % 0.0 in 0.0 W/m2 CLR
22:55 9.0 °F -1.7 °F 1018.5 in WNW 18.5 mph 18.5 mph 47 % 0.0 in 0.0 W/m2 CLR
23:00 8.8 °F -1.6 °F 1018.5 in WNW 18.5 mph 18.5 mph 48 % 0.0 in 0.0 W/m2 CLR
23:05 8.8 °F -1.3 °F 1018.5 in NW 31.5 mph 31.5 mph 49 % 0.0 in 0.0 W/m2 CLR
23:10 8.8 °F -1.3 °F 1018.5 in NW 20.4 mph 20.4 mph 49 % 0.0 in 0.0 W/m2 CLR
23:15 8.6 °F -1.3 °F 1018.5 in NW 16.7 mph 16.7 mph 50 % 0.0 in 0.0 W/m2 CLR
23:20 8.4 °F -1.2 °F 1018.5 in WNW 18.5 mph 18.5 mph 51 % 0.0 in 0.0 W/m2 CLR
23:25 8.3 °F -1.0 °F 1018.8 in WNW 18.5 mph 18.5 mph 52 % 0.0 in 0.0 W/m2 CLR
23:30 8.2 °F -1.1 °F 1018.8 in WNW 19.3 mph 19.3 mph 52 % 0.0 in 0.0 W/m2 CLR
23:35 8.2 °F -1.1 °F 1018.8 in WNW 20.4 mph 20.4 mph 52 % 0.0 in 0.0 W/m2 CLR
23:40 8.1 °F -1.2 °F 1018.8 in WNW 18.5 mph 18.5 mph 52 % 0.0 in 0.0 W/m2 CLR
23:45 8.0 °F -0.8 °F 1018.8 in NNW 24.1 mph 24.1 mph 54 % 0.0 in 0.0 W/m2 CLR
23:50 7.8 °F -0.9 °F 1018.8 in NW 20.4 mph 20.4 mph 54 % 0.0 in 0.0 W/m2 CLR
23:55 7.6 °F -0.6 °F 1018.8 in WNW 24.1 mph 24.1 mph 56 % 0.0 in 0.0 W/m2 CLR
Lo Temps de Massalio
Compliments of Weather Underground - 1.25 mb